createdAt,value
2018-04-18T00:00:59.545Z,1.83
2018-04-18T00:03:25.782Z,1.90
2018-04-18T00:05:52.105Z,1.93
2018-04-18T00:08:18.282Z,1.90
2018-04-18T00:10:44.738Z,2.00
2018-04-18T00:13:11.273Z,1.77
2018-04-18T00:15:37.707Z,1.87
2018-04-18T00:18:04.348Z,1.87
2018-04-18T00:20:30.530Z,1.80
2018-04-18T00:22:56.721Z,1.67
2018-04-18T00:25:22.916Z,1.80
2018-04-18T00:27:49.357Z,1.70
2018-04-18T00:30:15.696Z,1.53
2018-04-18T00:32:41.994Z,1.50
2018-04-18T00:35:08.219Z,2.10
2018-04-18T00:37:34.455Z,1.70
2018-04-18T00:40:00.620Z,2.10
2018-04-18T00:42:27.076Z,1.40
2018-04-18T00:44:53.281Z,1.83
2018-04-18T00:47:19.791Z,1.80
2018-04-18T00:49:45.948Z,1.70
2018-04-18T00:52:12.182Z,1.83
2018-04-18T00:54:38.359Z,1.50
2018-04-18T00:57:04.601Z,1.47
2018-04-18T00:59:30.815Z,1.73
2018-04-18T01:01:56.992Z,2.03
2018-04-18T01:04:23.206Z,1.87
2018-04-18T01:06:49.398Z,1.60
2018-04-18T01:09:15.560Z,1.83
2018-04-18T01:11:41.807Z,1.73
2018-04-18T01:14:08.011Z,1.60
2018-04-18T01:16:34.238Z,1.57
2018-04-18T01:19:00.445Z,1.30
2018-04-18T01:21:26.890Z,1.53
2018-04-18T01:23:53.151Z,1.50
2018-04-18T01:26:19.753Z,1.57
2018-04-18T01:28:45.951Z,1.93
2018-04-18T01:31:12.419Z,1.87
2018-04-18T01:33:38.726Z,1.37
2018-04-18T01:36:04.963Z,1.50
2018-04-18T01:38:31.514Z,1.57
2018-04-18T01:40:57.706Z,1.43
2018-04-18T01:43:23.894Z,1.63
2018-04-18T01:45:50.134Z,1.60
2018-04-18T01:48:16.330Z,1.90
2018-04-18T01:50:42.577Z,1.93
2018-04-18T01:53:08.881Z,1.50
2018-04-18T01:55:35.426Z,1.50
2018-04-18T01:58:01.613Z,1.60
2018-04-18T02:00:28.176Z,1.97
2018-04-18T02:02:54.398Z,1.23
2018-04-18T02:05:20.615Z,1.60
2018-04-18T02:07:46.843Z,1.40
2018-04-18T02:10:13.126Z,2.53
2018-04-18T02:12:39.305Z,1.50
2018-04-18T02:15:05.546Z,1.60
2018-04-18T02:17:31.745Z,1.87
2018-04-18T02:19:58.325Z,1.77
2018-04-18T02:22:24.558Z,2.03
2018-04-18T02:24:51.073Z,1.43
2018-04-18T02:27:17.610Z,1.97
2018-04-18T02:29:43.843Z,1.20
2018-04-18T02:32:11.450Z,1.40
2018-04-18T02:34:37.673Z,1.43
2018-04-18T02:37:04.263Z,2.07
2018-04-18T02:39:30.841Z,1.43
2018-04-18T02:41:57.058Z,1.87
2018-04-18T02:44:23.238Z,1.97
2018-04-18T02:46:49.526Z,1.53
2018-04-18T02:49:15.813Z,1.83
2018-04-18T02:51:42.346Z,2.00
2018-04-18T02:54:08.623Z,1.40
2018-04-18T02:56:34.838Z,1.73
2018-04-18T02:59:01.012Z,1.87
2018-04-18T03:01:27.246Z,2.40
2018-04-18T03:03:53.491Z,1.77
2018-04-18T03:06:19.743Z,1.70
2018-04-18T03:08:45.940Z,1.90
2018-04-18T03:11:12.133Z,1.90
2018-04-18T03:13:38.437Z,2.20
2018-04-18T03:16:04.630Z,1.50
2018-04-18T03:18:30.806Z,2.13
2018-04-18T03:20:57.124Z,1.67
2018-04-18T03:23:23.620Z,1.90
2018-04-18T03:25:49.858Z,1.73
2018-04-18T03:28:16.056Z,1.60
2018-04-18T03:30:42.312Z,1.43
2018-04-18T03:33:08.563Z,1.80
2018-04-18T03:35:34.749Z,1.73
2018-04-18T03:38:00.979Z,1.60
2018-04-18T03:40:27.428Z,1.33
2018-04-18T03:42:53.672Z,1.80
2018-04-18T03:45:19.914Z,1.77
2018-04-18T03:47:46.159Z,1.67
2018-04-18T03:50:12.594Z,2.03
2018-04-18T03:52:38.840Z,1.40
2018-04-18T03:55:05.021Z,1.70
2018-04-18T03:57:31.211Z,1.83
2018-04-18T03:59:57.406Z,1.53
2018-04-18T04:02:23.621Z,1.57
2018-04-18T04:04:49.934Z,1.50
2018-04-18T04:07:16.164Z,1.97
2018-04-18T04:09:50.251Z,1.80
2018-04-18T04:12:16.433Z,1.70
2018-04-18T04:14:42.908Z,1.40
2018-04-18T04:17:21.394Z,1.70
2018-04-18T04:20:00.076Z,1.57
2018-04-18T04:22:38.665Z,1.70
2018-04-18T04:25:04.839Z,2.20
2018-04-18T04:27:31.061Z,1.40
2018-04-18T04:29:57.230Z,1.27
2018-04-18T04:32:23.543Z,1.40
2018-04-18T04:34:49.804Z,1.57
2018-04-18T04:37:16.021Z,1.63
2018-04-18T04:39:42.278Z,1.80
2018-04-18T04:42:08.498Z,1.53
2018-04-18T04:44:34.718Z,1.60
2018-04-18T04:47:00.990Z,2.37
2018-04-18T04:49:27.604Z,2.37
2018-04-18T04:51:54.240Z,2.13
2018-04-18T04:54:20.419Z,2.13
2018-04-18T04:56:46.679Z,2.30
2018-04-18T04:59:12.851Z,2.60
2018-04-18T05:01:39.033Z,2.40
2018-04-18T05:04:05.272Z,2.40
2018-04-18T05:06:31.558Z,2.80
2018-04-18T05:08:57.775Z,3.20
2018-04-18T05:11:24.022Z,3.00
2018-04-18T05:13:50.254Z,2.83
2018-04-18T05:16:16.455Z,3.23
2018-04-18T05:18:42.643Z,3.07
2018-04-18T05:21:09.227Z,3.07
2018-04-18T05:23:35.398Z,3.10
2018-04-18T05:26:01.651Z,2.83
2018-04-18T05:28:28.318Z,3.27
2018-04-18T05:30:54.650Z,3.27
2018-04-18T05:33:20.853Z,3.40
2018-04-18T05:35:47.536Z,2.90
2018-04-18T05:38:13.787Z,2.63
2018-04-18T05:40:40.018Z,3.30
2018-04-18T05:43:06.338Z,3.20
2018-04-18T05:45:32.525Z,3.07
2018-04-18T05:47:58.877Z,3.07
2018-04-18T05:50:25.093Z,2.57
2018-04-18T05:52:51.347Z,2.80
2018-04-18T05:55:18.079Z,3.00
2018-04-18T05:57:44.340Z,2.70
2018-04-18T06:00:10.538Z,3.00
2018-04-18T06:02:36.817Z,3.00
2018-04-18T06:05:03.046Z,3.17
2018-04-18T06:07:29.259Z,2.67
2018-04-18T06:09:56.140Z,3.10
2018-04-18T06:12:22.331Z,2.70
2018-04-18T06:14:48.509Z,2.27
2018-04-18T06:17:14.959Z,4.67
2018-04-18T06:19:41.190Z,3.23
2018-04-18T06:22:07.404Z,3.50
2018-04-18T06:24:33.865Z,4.20
2018-04-18T06:27:00.077Z,4.00
2018-04-18T06:29:26.293Z,2.80
2018-04-18T06:31:52.477Z,3.20
2018-04-18T06:34:18.736Z,2.60
2018-04-18T06:36:44.948Z,3.27
2018-04-18T06:39:11.129Z,3.03
2018-04-18T06:41:37.337Z,2.43
2018-04-18T06:44:10.521Z,3.33
2018-04-18T06:46:36.766Z,2.83
2018-04-18T06:49:02.926Z,3.80
2018-04-18T06:51:29.176Z,3.17
2018-04-18T06:53:55.385Z,3.23
2018-04-18T06:56:22.047Z,3.30
2018-04-18T06:58:48.308Z,2.30
2018-04-18T07:01:14.559Z,3.20
2018-04-18T07:03:40.773Z,2.57
2018-04-18T07:06:06.958Z,2.50
2018-04-18T07:08:33.242Z,2.50
2018-04-18T07:10:59.413Z,2.53
2018-04-18T07:13:25.896Z,2.57
2018-04-18T07:15:52.153Z,2.80
2018-04-18T07:18:18.422Z,2.83
2018-04-18T07:20:45.053Z,3.20
2018-04-18T07:23:11.283Z,5.10
2018-04-18T07:25:37.453Z,3.80
2018-04-18T07:28:03.653Z,4.63
2018-04-18T07:30:29.890Z,4.67
2018-04-18T07:32:56.156Z,5.20
2018-04-18T07:35:22.368Z,5.07
2018-04-18T07:37:48.897Z,5.10
2018-04-18T07:40:15.089Z,5.60
2018-04-18T07:42:41.322Z,4.73
2018-04-18T07:45:07.784Z,5.20
2018-04-18T07:47:33.949Z,5.83
2018-04-18T07:50:00.170Z,6.00
2018-04-18T07:52:26.429Z,5.73
2018-04-18T07:54:52.635Z,5.30
2018-04-18T07:57:19.250Z,5.40
2018-04-18T07:59:45.545Z,5.90
2018-04-18T08:02:11.717Z,5.03
2018-04-18T08:04:37.999Z,5.43
2018-04-18T08:07:04.257Z,5.77
2018-04-18T08:09:30.440Z,5.70
2018-04-18T08:11:56.765Z,5.50
2018-04-18T08:14:23.052Z,5.47
2018-04-18T08:16:49.525Z,4.93
2018-04-18T08:19:15.746Z,5.23
2018-04-18T08:21:42.001Z,4.13
2018-04-18T08:24:08.290Z,5.33
2018-04-18T08:26:34.843Z,4.80
2018-04-18T08:29:01.082Z,5.17
2018-04-18T08:31:27.271Z,5.70
2018-04-18T08:33:53.496Z,4.90
2018-04-18T08:36:20.009Z,5.27
2018-04-18T08:38:46.255Z,4.83
2018-04-18T08:41:12.525Z,5.27
2018-04-18T08:43:38.722Z,4.50
2018-04-18T08:46:05.327Z,4.77
2018-04-18T08:48:31.475Z,3.67
2018-04-18T08:50:57.685Z,4.10
2018-04-18T08:53:23.927Z,4.37
2018-04-18T08:55:50.095Z,3.83
2018-04-18T08:58:16.450Z,3.53
2018-04-18T09:00:42.982Z,3.67
2018-04-18T09:03:09.206Z,3.60
2018-04-18T09:05:35.520Z,3.43
2018-04-18T09:08:01.996Z,2.90
2018-04-18T09:10:28.233Z,3.47
2018-04-18T09:12:54.462Z,3.60
2018-04-18T09:15:20.685Z,3.33
2018-04-18T09:17:46.962Z,3.20
2018-04-18T09:20:13.125Z,2.60
2018-04-18T09:22:39.409Z,3.10
2018-04-18T09:25:05.621Z,3.10
2018-04-18T09:27:31.817Z,2.67
2018-04-18T09:29:58.089Z,3.17
2018-04-18T09:32:24.300Z,2.80
2018-04-18T09:34:50.754Z,2.73
2018-04-18T09:37:16.957Z,3.07
2018-04-18T09:39:43.434Z,3.47
2018-04-18T09:42:09.680Z,2.40
2018-04-18T09:44:35.864Z,2.57
2018-04-18T09:47:02.141Z,2.70
2018-04-18T09:49:28.325Z,2.10
2018-04-18T09:51:54.516Z,2.70
2018-04-18T09:54:20.819Z,3.00
2018-04-18T09:56:54.037Z,2.53
2018-04-18T09:59:20.266Z,2.23
2018-04-18T10:01:46.502Z,2.27
2018-04-18T10:04:12.725Z,2.43
2018-04-18T10:06:38.990Z,2.80
2018-04-18T10:09:05.678Z,3.03
2018-04-18T10:11:32.242Z,1.90
2018-04-18T10:13:58.791Z,2.80
2018-04-18T10:16:25.114Z,3.30
2018-04-18T10:18:51.368Z,2.93
2018-04-18T10:21:17.548Z,2.57
2018-04-18T10:23:43.850Z,2.80
2018-04-18T10:26:10.022Z,2.10
2018-04-18T10:28:36.321Z,3.07
2018-04-18T10:31:02.556Z,2.93
2018-04-18T10:33:29.157Z,2.50
2018-04-18T10:35:55.370Z,2.50
2018-04-18T10:38:21.590Z,2.10
2018-04-18T10:40:47.914Z,1.87
2018-04-18T10:43:14.258Z,2.37
2018-04-18T10:45:40.768Z,2.53
2018-04-18T10:48:07.224Z,3.00
2018-04-18T10:50:33.551Z,2.43
2018-04-18T10:52:59.822Z,2.40
2018-04-18T10:55:25.974Z,2.90
2018-04-18T10:57:52.209Z,2.50
2018-04-18T11:00:18.411Z,3.03
2018-04-18T11:02:44.619Z,2.63
2018-04-18T11:05:10.808Z,2.87
2018-04-18T11:07:37.032Z,2.60
2018-04-18T11:10:03.322Z,2.70
2018-04-18T11:12:29.591Z,2.73
2018-04-18T11:14:55.846Z,3.93
2018-04-18T11:17:22.135Z,3.50
2018-04-18T11:19:48.415Z,3.43
2018-04-18T11:22:14.662Z,2.30
2018-04-18T11:24:40.881Z,2.60
2018-04-18T11:27:07.341Z,2.60
2018-04-18T11:29:33.502Z,2.83
2018-04-18T11:31:59.766Z,3.03
2018-04-18T11:34:25.936Z,2.33
2018-04-18T11:36:52.465Z,2.90
2018-04-18T11:39:18.731Z,3.13
2018-04-18T11:41:44.922Z,2.80
2018-04-18T11:44:11.139Z,2.60
2018-04-18T11:46:37.372Z,2.43
2018-04-18T11:49:03.595Z,2.50
2018-04-18T11:51:29.799Z,2.27
2018-04-18T11:53:56.366Z,2.80
2018-04-18T11:56:22.578Z,2.60
2018-04-18T11:58:49.059Z,2.37
2018-04-18T12:01:15.328Z,2.70
2018-04-18T12:03:41.536Z,2.13
2018-04-18T12:06:07.863Z,2.40
2018-04-18T12:08:34.114Z,2.30
2018-04-18T12:11:00.294Z,2.23
2018-04-18T12:13:26.536Z,3.10
2018-04-18T12:15:53.055Z,2.70
2018-04-18T12:18:19.267Z,2.53
2018-04-18T12:20:45.490Z,2.83
2018-04-18T12:23:11.911Z,3.30
2018-04-18T12:25:38.107Z,3.13
2018-04-18T12:28:04.505Z,3.33
2018-04-18T12:30:30.688Z,3.10
2018-04-18T12:32:56.931Z,3.20
2018-04-18T12:35:23.467Z,2.70
2018-04-18T12:37:49.650Z,3.37
2018-04-18T12:40:15.923Z,2.80
2018-04-18T12:42:42.153Z,2.90
2018-04-18T12:45:08.321Z,2.60
2018-04-18T12:47:34.478Z,2.40
2018-04-18T12:50:00.669Z,3.10
2018-04-18T12:52:26.922Z,2.47
2018-04-18T12:54:53.121Z,3.13
2018-04-18T12:57:19.441Z,3.00
2018-04-18T12:59:45.644Z,2.50
2018-04-18T13:02:11.947Z,2.57
2018-04-18T13:04:38.167Z,2.47
2018-04-18T13:07:04.356Z,2.83
2018-04-18T13:09:31.029Z,3.10
2018-04-18T13:11:57.196Z,2.90
2018-04-18T13:14:23.380Z,2.70
2018-04-18T13:16:49.802Z,2.60
2018-04-18T13:19:15.982Z,2.90
2018-04-18T13:21:42.193Z,2.20
2018-04-18T13:24:08.360Z,2.30
2018-04-18T13:26:35.028Z,2.60
2018-04-18T13:29:01.209Z,2.40
2018-04-18T13:31:27.439Z,2.43
2018-04-18T13:33:53.897Z,2.30
2018-04-18T13:36:20.309Z,2.63
2018-04-18T13:38:46.530Z,2.47
2018-04-18T13:41:12.713Z,2.00
2018-04-18T13:43:38.901Z,2.87
2018-04-18T13:46:05.549Z,2.43
2018-04-18T13:48:31.735Z,2.37
2018-04-18T13:50:57.944Z,2.30
2018-04-18T13:53:24.141Z,2.10
2018-04-18T13:55:50.449Z,3.20
2018-04-18T13:58:16.645Z,2.40
2018-04-18T14:00:42.865Z,2.37
2018-04-18T14:03:09.401Z,2.17
2018-04-18T14:05:35.638Z,2.63
2018-04-18T14:08:01.825Z,2.20
2018-04-18T14:10:28.438Z,2.60
2018-04-18T14:12:54.632Z,2.07
2018-04-18T14:15:21.228Z,2.40
2018-04-18T14:17:47.392Z,2.23
2018-04-18T14:20:13.696Z,2.43
2018-04-18T14:22:39.891Z,2.50
2018-04-18T14:25:06.073Z,2.37
2018-04-18T14:27:32.333Z,2.07
2018-04-18T14:29:58.562Z,2.40
2018-04-18T14:32:24.801Z,2.33
2018-04-18T14:34:51.000Z,2.50
2018-04-18T14:37:17.621Z,2.67
2018-04-18T14:39:43.866Z,2.83
2018-04-18T14:42:10.060Z,2.63
2018-04-18T14:44:36.483Z,2.70
2018-04-18T14:47:03.217Z,2.40
2018-04-18T14:49:29.405Z,1.97
2018-04-18T14:51:55.706Z,2.47
2018-04-18T14:54:22.425Z,2.17
2018-04-18T14:56:48.589Z,2.50
2018-04-18T14:59:14.760Z,2.77
2018-04-18T15:01:40.984Z,3.13
2018-04-18T15:04:07.269Z,2.67
2018-04-18T15:06:33.542Z,1.70
2018-04-18T15:08:59.715Z,2.23
2018-04-18T15:11:25.942Z,2.40
2018-04-18T15:13:52.394Z,2.53
2018-04-18T15:16:18.642Z,2.17
2018-04-18T15:18:44.884Z,2.00
2018-04-18T15:21:11.060Z,1.80
2018-04-18T15:23:37.278Z,2.07
2018-04-18T15:26:03.453Z,2.30
2018-04-18T15:28:29.748Z,2.30
2018-04-18T15:30:56.123Z,2.00
2018-04-18T15:33:22.334Z,1.60
2018-04-18T15:35:48.544Z,2.37
2018-04-18T15:38:14.738Z,2.20
2018-04-18T15:40:40.937Z,2.13
2018-04-18T15:43:07.121Z,2.10
2018-04-18T15:45:33.335Z,2.60
2018-04-18T15:47:59.575Z,2.27
2018-04-18T15:50:25.830Z,2.70
2018-04-18T15:52:52.353Z,2.40
2018-04-18T15:55:18.894Z,3.10
2018-04-18T15:57:45.123Z,2.30
2018-04-18T16:00:11.351Z,2.20
2018-04-18T16:02:37.630Z,2.40
2018-04-18T16:05:03.847Z,1.87
2018-04-18T16:07:30.065Z,2.30
2018-04-18T16:09:56.520Z,2.50
2018-04-18T16:12:22.798Z,2.40
2018-04-18T16:14:49.150Z,1.87
2018-04-18T16:17:15.390Z,2.60
2018-04-18T16:19:41.583Z,2.27
2018-04-18T16:22:07.840Z,2.30
2018-04-18T16:24:34.343Z,1.93
2018-04-18T16:27:00.646Z,1.90
2018-04-18T16:29:39.239Z,2.30
2018-04-18T16:32:05.502Z,2.10
2018-04-18T16:34:31.746Z,1.87
2018-04-18T16:36:57.994Z,2.03
2018-04-18T16:39:24.224Z,2.03
2018-04-18T16:41:50.754Z,2.33
2018-04-18T16:44:17.047Z,2.37
2018-04-18T16:46:43.262Z,2.00
2018-04-18T16:49:09.733Z,2.80
2018-04-18T16:51:36.040Z,2.10
2018-04-18T16:54:02.219Z,2.17
2018-04-18T16:56:28.422Z,2.37
2018-04-18T16:58:54.644Z,1.93
2018-04-18T17:01:20.797Z,2.07
2018-04-18T17:03:47.109Z,1.90
2018-04-18T17:06:13.276Z,1.90
2018-04-18T17:08:39.458Z,2.90
2018-04-18T17:11:06.397Z,2.00
2018-04-18T17:13:32.562Z,2.40
2018-04-18T17:15:58.842Z,2.50
2018-04-18T17:18:25.064Z,2.20
2018-04-18T17:20:51.614Z,2.40
2018-04-18T17:23:17.802Z,1.97
2018-04-18T17:25:44.445Z,2.30
2018-04-18T17:28:10.627Z,2.27
2018-04-18T17:30:36.816Z,1.90
2018-04-18T17:33:03.040Z,2.50
2018-04-18T17:35:29.353Z,2.10
2018-04-18T17:37:55.586Z,2.27
2018-04-18T17:40:21.793Z,1.80
2018-04-18T17:42:48.299Z,2.20
2018-04-18T17:45:14.508Z,2.40
2018-04-18T17:47:40.758Z,2.37
2018-04-18T17:50:06.958Z,2.00
2018-04-18T17:52:33.145Z,2.00
2018-04-18T17:54:59.297Z,2.60
2018-04-18T17:57:25.521Z,2.53
2018-04-18T17:59:51.786Z,2.10
2018-04-18T18:02:18.016Z,2.37
2018-04-18T18:04:44.217Z,1.90
2018-04-18T18:07:10.439Z,2.07
2018-04-18T18:09:36.758Z,1.83
2018-04-18T18:12:03.139Z,1.90
2018-04-18T18:14:29.379Z,2.03
2018-04-18T18:16:55.555Z,1.80
2018-04-18T18:19:21.866Z,2.40
2018-04-18T18:21:48.085Z,2.50
2018-04-18T18:24:14.347Z,2.00
2018-04-18T18:26:40.608Z,2.40
2018-04-18T18:29:06.805Z,2.60
2018-04-18T18:31:33.058Z,2.67
2018-04-18T18:33:59.258Z,2.70
2018-04-18T18:36:25.492Z,2.53
2018-04-18T18:38:51.805Z,2.30
2018-04-18T18:41:18.059Z,2.40
2018-04-18T18:43:44.601Z,2.40
2018-04-18T18:46:10.752Z,2.43
2018-04-18T18:48:37.282Z,2.90
2018-04-18T18:51:03.674Z,2.40
2018-04-18T18:53:29.850Z,2.40
2018-04-18T18:55:56.180Z,2.63
2018-04-18T18:58:22.328Z,2.80
2018-04-18T19:00:48.640Z,3.23
2018-04-18T19:03:14.975Z,2.73
2018-04-18T19:05:41.190Z,2.30
2018-04-18T19:08:07.397Z,3.00
2018-04-18T19:10:33.670Z,2.80
2018-04-18T19:13:00.099Z,2.80
2018-04-18T19:15:26.292Z,3.10
2018-04-18T19:17:52.521Z,2.70
2018-04-18T19:20:18.805Z,2.50
2018-04-18T19:22:44.973Z,3.10
2018-04-18T19:25:11.246Z,2.90
2018-04-18T19:27:37.422Z,2.53
2018-04-18T19:30:03.626Z,2.53
2018-04-18T19:32:30.314Z,2.63
2018-04-18T19:34:56.468Z,2.60
2018-04-18T19:37:22.678Z,3.10
2018-04-18T19:39:48.879Z,3.03
2018-04-18T19:42:15.114Z,2.70
2018-04-18T19:44:41.322Z,3.00
2018-04-18T19:47:07.480Z,3.20
2018-04-18T19:49:33.731Z,2.53
2018-04-18T19:52:00.071Z,2.70
2018-04-18T19:54:26.242Z,2.67
2018-04-18T19:56:52.612Z,3.23
2018-04-18T19:59:18.781Z,3.43
2018-04-18T20:01:45.438Z,3.97
2018-04-18T20:04:11.658Z,3.70
2018-04-18T20:06:37.911Z,3.37
2018-04-18T20:09:05.134Z,3.00
2018-04-18T20:11:31.357Z,3.00
2018-04-18T20:13:57.782Z,4.20
2018-04-18T20:16:24.066Z,3.30
2018-04-18T20:18:50.276Z,2.83
2018-04-18T20:21:16.470Z,3.23
2018-04-18T20:23:42.698Z,3.13
2018-04-18T20:26:08.873Z,3.47
2018-04-18T20:28:35.130Z,5.50
2018-04-18T20:31:01.387Z,3.80
2018-04-18T20:33:27.763Z,3.40
2018-04-18T20:35:53.913Z,3.33
2018-04-18T20:38:20.111Z,2.93
2018-04-18T20:40:46.334Z,3.10
2018-04-18T20:43:12.744Z,3.27
2018-04-18T20:45:38.918Z,4.13
2018-04-18T20:48:05.101Z,3.20
2018-04-18T20:50:31.300Z,3.20
2018-04-18T20:52:57.476Z,3.17
2018-04-18T20:55:23.797Z,3.00
2018-04-18T20:57:49.970Z,3.63
2018-04-18T21:00:16.170Z,2.80
2018-04-18T21:02:42.348Z,3.83
2018-04-18T21:05:08.861Z,3.93
2018-04-18T21:07:35.067Z,3.23
2018-04-18T21:10:01.223Z,2.60
2018-04-18T21:12:27.406Z,3.77
2018-04-18T21:14:53.919Z,4.17
2018-04-18T21:17:20.114Z,3.30
2018-04-18T21:19:46.294Z,3.77
2018-04-18T21:22:12.592Z,3.17
2018-04-18T21:24:38.750Z,3.37
2018-04-18T21:27:04.900Z,4.00
2018-04-18T21:29:31.282Z,4.23
2018-04-18T21:31:57.449Z,3.77
2018-04-18T21:34:23.714Z,3.07
2018-04-18T21:36:49.940Z,3.67
2018-04-18T21:39:16.154Z,3.33
2018-04-18T21:41:42.326Z,2.57
2018-04-18T21:44:08.542Z,3.40
2018-04-18T21:46:34.732Z,3.23
2018-04-18T21:49:00.981Z,3.50
2018-04-18T21:51:27.233Z,2.80
2018-04-18T21:53:53.470Z,3.87
2018-04-18T21:56:19.690Z,3.27
2018-04-18T21:58:45.857Z,3.10
2018-04-18T22:01:12.042Z,3.13
2018-04-18T22:03:38.203Z,4.70
2018-04-18T22:06:04.518Z,3.20
2018-04-18T22:08:30.694Z,3.57
2018-04-18T22:10:56.946Z,3.40
2018-04-18T22:13:23.193Z,4.20
2018-04-18T22:15:49.362Z,4.47
2018-04-18T22:18:16.124Z,4.20
2018-04-18T22:20:42.286Z,4.30
2018-04-18T22:23:08.713Z,4.40
2018-04-18T22:25:34.963Z,4.20
2018-04-18T22:28:01.205Z,3.60
2018-04-18T22:30:27.342Z,4.00
2018-04-18T22:32:53.576Z,4.23
2018-04-18T22:35:19.893Z,4.10
2018-04-18T22:37:53.027Z,3.93
2018-04-18T22:40:19.250Z,3.90
2018-04-18T22:42:45.396Z,3.63
2018-04-18T22:45:11.571Z,3.83
2018-04-18T22:47:37.871Z,4.63
2018-04-18T22:50:04.093Z,4.20
2018-04-18T22:52:30.273Z,3.30
2018-04-18T22:54:56.429Z,3.97
2018-04-18T22:57:22.828Z,3.60
2018-04-18T22:59:49.005Z,3.50
2018-04-18T23:02:15.258Z,3.50
2018-04-18T23:04:41.486Z,3.97
2018-04-18T23:07:07.847Z,3.37
2018-04-18T23:09:33.993Z,4.33
2018-04-18T23:12:00.150Z,3.30
2018-04-18T23:14:26.427Z,3.07
2018-04-18T23:16:53.101Z,3.83
2018-04-18T23:19:19.264Z,3.17
2018-04-18T23:21:45.460Z,3.37
2018-04-18T23:24:11.716Z,3.77
2018-04-18T23:26:37.902Z,3.03
2018-04-18T23:29:04.101Z,3.53
2018-04-18T23:31:30.292Z,3.17
2018-04-18T23:33:56.522Z,3.20
2018-04-18T23:36:22.697Z,3.20
2018-04-18T23:38:49.277Z,3.43
2018-04-18T23:41:15.526Z,3.50
2018-04-18T23:43:41.898Z,2.93
2018-04-18T23:46:08.060Z,2.90
2018-04-18T23:48:34.225Z,2.90
2018-04-18T23:51:00.428Z,3.80
2018-04-18T23:53:26.954Z,3.33
2018-04-18T23:55:53.194Z,4.13
2018-04-18T23:58:19.343Z,3.10
